sensor_id;sensor_type;location;lat;lon;timestamp;P1;durP1;ratioP1;P2;durP2;ratioP2
6973;SDS011;3527;52.376;8.990;2022-12-29T00:01:21;3.13;;;1.77;;
6973;SDS011;3527;52.376;8.990;2022-12-29T00:04:09;3.93;;;1.40;;
6973;SDS011;3527;52.376;8.990;2022-12-29T00:07:01;1.97;;;1.40;;
6973;SDS011;3527;52.376;8.990;2022-12-29T00:09:51;3.20;;;1.60;;
6973;SDS011;3527;52.376;8.990;2022-12-29T00:12:39;2.13;;;1.40;;
6973;SDS011;3527;52.376;8.990;2022-12-29T00:15:44;1.77;;;1.33;;
6973;SDS011;3527;52.376;8.990;2022-12-29T00:18:32;2.10;;;1.43;;
6973;SDS011;3527;52.376;8.990;2022-12-29T00:21:23;2.50;;;1.30;;
6973;SDS011;3527;52.376;8.990;2022-12-29T00:24:32;1.83;;;1.47;;
6973;SDS011;3527;52.376;8.990;2022-12-29T00:27:38;1.70;;;1.30;;
6973;SDS011;3527;52.376;8.990;2022-12-29T00:30:52;1.90;;;1.47;;
6973;SDS011;3527;52.376;8.990;2022-12-29T00:33:58;1.80;;;1.30;;
6973;SDS011;3527;52.376;8.990;2022-12-29T00:37:04;1.43;;;1.20;;
6973;SDS011;3527;52.376;8.990;2022-12-29T00:39:52;2.10;;;1.40;;
6973;SDS011;3527;52.376;8.990;2022-12-29T00:42:58;2.13;;;1.47;;
6973;SDS011;3527;52.376;8.990;2022-12-29T00:46:04;3.83;;;1.37;;
6973;SDS011;3527;52.376;8.990;2022-12-29T00:48:52;3.50;;;1.07;;
6973;SDS011;3527;52.376;8.990;2022-12-29T00:52:02;1.40;;;1.27;;
6973;SDS011;3527;52.376;8.990;2022-12-29T00:54:49;1.40;;;1.20;;
6973;SDS011;3527;52.376;8.990;2022-12-29T00:57:36;1.40;;;1.20;;
6973;SDS011;3527;52.376;8.990;2022-12-29T01:00:23;2.83;;;1.40;;
6973;SDS011;3527;52.376;8.990;2022-12-29T01:03:10;2.37;;;1.17;;
6973;SDS011;3527;52.376;8.990;2022-12-29T01:06:01;1.60;;;1.30;;
6973;SDS011;3527;52.376;8.990;2022-12-29T01:08:50;2.37;;;1.47;;
6973;SDS011;3527;52.376;8.990;2022-12-29T01:11:58;1.20;;;1.10;;
6973;SDS011;3527;52.376;8.990;2022-12-29T01:14:46;1.77;;;1.10;;
6973;SDS011;3527;52.376;8.990;2022-12-29T01:17:33;1.90;;;1.13;;
6973;SDS011;3527;52.376;8.990;2022-12-29T01:20:21;1.73;;;1.20;;
6973;SDS011;3527;52.376;8.990;2022-12-29T01:23:09;2.97;;;1.27;;
6973;SDS011;3527;52.376;8.990;2022-12-29T01:25:57;1.60;;;1.10;;
6973;SDS011;3527;52.376;8.990;2022-12-29T01:28:55;1.47;;;1.30;;
6973;SDS011;3527;52.376;8.990;2022-12-29T01:31:42;2.50;;;1.30;;
6973;SDS011;3527;52.376;8.990;2022-12-29T01:34:29;1.50;;;1.20;;
6973;SDS011;3527;52.376;8.990;2022-12-29T01:37:17;2.40;;;1.10;;
6973;SDS011;3527;52.376;8.990;2022-12-29T01:40:05;1.43;;;1.20;;
6973;SDS011;3527;52.376;8.990;2022-12-29T01:42:53;1.43;;;1.20;;
6973;SDS011;3527;52.376;8.990;2022-12-29T01:45:45;3.37;;;1.13;;
6973;SDS011;3527;52.376;8.990;2022-12-29T01:48:40;1.77;;;1.10;;
6973;SDS011;3527;52.376;8.990;2022-12-29T01:51:28;1.30;;;1.20;;
6973;SDS011;3527;52.376;8.990;2022-12-29T01:54:24;1.93;;;1.17;;
6973;SDS011;3527;52.376;8.990;2022-12-29T01:57:22;1.33;;;1.00;;
6973;SDS011;3527;52.376;8.990;2022-12-29T02:00:14;1.40;;;1.17;;
6973;SDS011;3527;52.376;8.990;2022-12-29T02:03:03;1.23;;;0.90;;
6973;SDS011;3527;52.376;8.990;2022-12-29T02:06:01;1.10;;;0.93;;
6973;SDS011;3527;52.376;8.990;2022-12-29T02:08:53;1.33;;;1.07;;
6973;SDS011;3527;52.376;8.990;2022-12-29T02:11:42;2.03;;;1.00;;
6973;SDS011;3527;52.376;8.990;2022-12-29T02:14:29;2.23;;;1.00;;
6973;SDS011;3527;52.376;8.990;2022-12-29T02:36:13;1.13;;;0.90;;
6973;SDS011;3527;52.376;8.990;2022-12-29T02:39:27;1.43;;;0.90;;
6973;SDS011;3527;52.376;8.990;2022-12-29T02:45:26;0.93;;;0.80;;
6973;SDS011;3527;52.376;8.990;2022-12-29T02:48:23;1.00;;;0.80;;
6973;SDS011;3527;52.376;8.990;2022-12-29T02:51:18;1.77;;;0.80;;
6973;SDS011;3527;52.376;8.990;2022-12-29T02:54:10;1.30;;;0.80;;
6973;SDS011;3527;52.376;8.990;2022-12-29T03:00:10;1.30;;;0.80;;
6973;SDS011;3527;52.376;8.990;2022-12-29T03:06:45;1.63;;;0.80;;
6973;SDS011;3527;52.376;8.990;2022-12-29T03:15:45;1.43;;;0.83;;
6973;SDS011;3527;52.376;8.990;2022-12-29T03:21:56;1.40;;;0.80;;
6973;SDS011;3527;52.376;8.990;2022-12-29T03:25:16;0.97;;;0.80;;
6973;SDS011;3527;52.376;8.990;2022-12-29T03:28:09;0.87;;;0.80;;
6973;SDS011;3527;52.376;8.990;2022-12-29T03:31:00;1.30;;;0.70;;
6973;SDS011;3527;52.376;8.990;2022-12-29T03:33:49;1.10;;;0.70;;
6973;SDS011;3527;52.376;8.990;2022-12-29T03:36:48;0.93;;;0.70;;
6973;SDS011;3527;52.376;8.990;2022-12-29T03:39:38;0.87;;;0.60;;
6973;SDS011;3527;52.376;8.990;2022-12-29T03:42:27;1.40;;;0.60;;
6973;SDS011;3527;52.376;8.990;2022-12-29T03:45:18;0.90;;;0.60;;
6973;SDS011;3527;52.376;8.990;2022-12-29T03:48:05;1.63;;;0.73;;
6973;SDS011;3527;52.376;8.990;2022-12-29T03:50:52;0.90;;;0.60;;
6973;SDS011;3527;52.376;8.990;2022-12-29T03:53:39;0.80;;;0.60;;
6973;SDS011;3527;52.376;8.990;2022-12-29T03:56:26;1.00;;;0.57;;
6973;SDS011;3527;52.376;8.990;2022-12-29T03:59:13;1.03;;;0.60;;
6973;SDS011;3527;52.376;8.990;2022-12-29T04:02:00;1.37;;;0.70;;
6973;SDS011;3527;52.376;8.990;2022-12-29T04:04:47;0.70;;;0.60;;
6973;SDS011;3527;52.376;8.990;2022-12-29T04:07:34;0.70;;;0.60;;
6973;SDS011;3527;52.376;8.990;2022-12-29T04:10:21;1.03;;;0.70;;
6973;SDS011;3527;52.376;8.990;2022-12-29T04:13:08;0.97;;;0.50;;
6973;SDS011;3527;52.376;8.990;2022-12-29T04:15:55;2.53;;;0.70;;
6973;SDS011;3527;52.376;8.990;2022-12-29T04:18:42;1.00;;;0.60;;
6973;SDS011;3527;52.376;8.990;2022-12-29T04:21:29;1.10;;;0.60;;
6973;SDS011;3527;52.376;8.990;2022-12-29T04:24:17;1.23;;;0.80;;
6973;SDS011;3527;52.376;8.990;2022-12-29T04:27:04;0.70;;;0.50;;
6973;SDS011;3527;52.376;8.990;2022-12-29T04:29:51;1.87;;;0.80;;
6973;SDS011;3527;52.376;8.990;2022-12-29T04:32:38;1.20;;;0.83;;
6973;SDS011;3527;52.376;8.990;2022-12-29T04:35:25;1.10;;;0.60;;
6973;SDS011;3527;52.376;8.990;2022-12-29T04:38:12;1.10;;;0.60;;
6973;SDS011;3527;52.376;8.990;2022-12-29T04:41:00;0.90;;;0.70;;
6973;SDS011;3527;52.376;8.990;2022-12-29T04:43:48;2.43;;;0.87;;
6973;SDS011;3527;52.376;8.990;2022-12-29T04:46:35;2.73;;;0.80;;
6973;SDS011;3527;52.376;8.990;2022-12-29T04:49:22;1.70;;;0.90;;
6973;SDS011;3527;52.376;8.990;2022-12-29T04:52:09;1.37;;;0.60;;
6973;SDS011;3527;52.376;8.990;2022-12-29T04:54:56;1.33;;;0.80;;
6973;SDS011;3527;52.376;8.990;2022-12-29T04:57:43;1.33;;;0.73;;
6973;SDS011;3527;52.376;8.990;2022-12-29T05:00:30;1.00;;;0.60;;
6973;SDS011;3527;52.376;8.990;2022-12-29T05:03:17;1.90;;;0.70;;
6973;SDS011;3527;52.376;8.990;2022-12-29T05:06:05;1.80;;;0.70;;
6973;SDS011;3527;52.376;8.990;2022-12-29T05:08:52;0.87;;;0.77;;
6973;SDS011;3527;52.376;8.990;2022-12-29T05:11:39;1.30;;;0.70;;
6973;SDS011;3527;52.376;8.990;2022-12-29T05:14:26;3.93;;;0.73;;
6973;SDS011;3527;52.376;8.990;2022-12-29T05:17:13;0.90;;;0.60;;
6973;SDS011;3527;52.376;8.990;2022-12-29T05:20:00;2.07;;;0.70;;
6973;SDS011;3527;52.376;8.990;2022-12-29T05:22:48;2.43;;;0.83;;
6973;SDS011;3527;52.376;8.990;2022-12-29T05:25:34;1.40;;;0.63;;
6973;SDS011;3527;52.376;8.990;2022-12-29T05:28:22;0.97;;;0.70;;
6973;SDS011;3527;52.376;8.990;2022-12-29T05:31:09;0.70;;;0.70;;
6973;SDS011;3527;52.376;8.990;2022-12-29T05:33:56;1.23;;;0.80;;
6973;SDS011;3527;52.376;8.990;2022-12-29T05:36:43;0.67;;;0.60;;
6973;SDS011;3527;52.376;8.990;2022-12-29T05:39:30;1.97;;;0.70;;
6973;SDS011;3527;52.376;8.990;2022-12-29T05:42:17;1.17;;;0.63;;
6973;SDS011;3527;52.376;8.990;2022-12-29T05:45:04;0.93;;;0.60;;
6973;SDS011;3527;52.376;8.990;2022-12-29T05:47:53;1.70;;;0.70;;
6973;SDS011;3527;52.376;8.990;2022-12-29T05:50:40;1.47;;;0.83;;
6973;SDS011;3527;52.376;8.990;2022-12-29T05:53:27;1.60;;;0.70;;
6973;SDS011;3527;52.376;8.990;2022-12-29T05:56:14;1.70;;;1.20;;
6973;SDS011;3527;52.376;8.990;2022-12-29T05:59:03;1.77;;;0.90;;
6973;SDS011;3527;52.376;8.990;2022-12-29T06:01:50;1.27;;;0.90;;
6973;SDS011;3527;52.376;8.990;2022-12-29T06:04:37;1.63;;;1.00;;
6973;SDS011;3527;52.376;8.990;2022-12-29T06:07:24;4.03;;;1.20;;
6973;SDS011;3527;52.376;8.990;2022-12-29T06:10:11;1.50;;;0.80;;
6973;SDS011;3527;52.376;8.990;2022-12-29T06:12:58;3.93;;;1.00;;
6973;SDS011;3527;52.376;8.990;2022-12-29T06:15:47;1.23;;;0.83;;
6973;SDS011;3527;52.376;8.990;2022-12-29T06:18:34;1.40;;;0.90;;
6973;SDS011;3527;52.376;8.990;2022-12-29T06:21:21;2.43;;;0.90;;
6973;SDS011;3527;52.376;8.990;2022-12-29T06:24:08;2.00;;;1.10;;
6973;SDS011;3527;52.376;8.990;2022-12-29T06:26:57;1.77;;;0.80;;
6973;SDS011;3527;52.376;8.990;2022-12-29T06:29:44;4.43;;;1.13;;
6973;SDS011;3527;52.376;8.990;2022-12-29T06:32:31;4.27;;;0.83;;
6973;SDS011;3527;52.376;8.990;2022-12-29T06:35:18;2.93;;;0.70;;
6973;SDS011;3527;52.376;8.990;2022-12-29T06:38:05;1.67;;;0.73;;
6973;SDS011;3527;52.376;8.990;2022-12-29T06:40:52;2.43;;;0.80;;
6973;SDS011;3527;52.376;8.990;2022-12-29T06:43:39;1.00;;;0.50;;
6973;SDS011;3527;52.376;8.990;2022-12-29T06:46:26;1.10;;;0.60;;
6973;SDS011;3527;52.376;8.990;2022-12-29T06:49:13;2.37;;;0.77;;
6973;SDS011;3527;52.376;8.990;2022-12-29T06:52:01;1.50;;;0.60;;
6973;SDS011;3527;52.376;8.990;2022-12-29T06:54:58;2.10;;;0.70;;
6973;SDS011;3527;52.376;8.990;2022-12-29T06:57:45;1.47;;;0.80;;
6973;SDS011;3527;52.376;8.990;2022-12-29T07:00:32;1.40;;;0.80;;
6973;SDS011;3527;52.376;8.990;2022-12-29T07:03:19;3.23;;;0.67;;
6973;SDS011;3527;52.376;8.990;2022-12-29T07:06:06;1.40;;;0.70;;
6973;SDS011;3527;52.376;8.990;2022-12-29T07:08:53;1.30;;;0.87;;
6973;SDS011;3527;52.376;8.990;2022-12-29T07:11:41;2.53;;;0.90;;
6973;SDS011;3527;52.376;8.990;2022-12-29T07:14:29;1.87;;;0.87;;
6973;SDS011;3527;52.376;8.990;2022-12-29T07:17:16;2.40;;;0.87;;
6973;SDS011;3527;52.376;8.990;2022-12-29T07:20:03;6.17;;;0.80;;
6973;SDS011;3527;52.376;8.990;2022-12-29T07:22:51;3.10;;;1.00;;
6973;SDS011;3527;52.376;8.990;2022-12-29T07:25:38;2.80;;;1.13;;
6973;SDS011;3527;52.376;8.990;2022-12-29T07:28:27;1.37;;;1.03;;
6973;SDS011;3527;52.376;8.990;2022-12-29T07:31:15;2.63;;;1.10;;
6973;SDS011;3527;52.376;8.990;2022-12-29T07:34:08;2.60;;;1.17;;
6973;SDS011;3527;52.376;8.990;2022-12-29T07:36:55;3.33;;;1.80;;
6973;SDS011;3527;52.376;8.990;2022-12-29T07:39:42;4.50;;;1.33;;
6973;SDS011;3527;52.376;8.990;2022-12-29T07:42:30;1.93;;;1.40;;
6973;SDS011;3527;52.376;8.990;2022-12-29T07:45:18;3.63;;;1.47;;
6973;SDS011;3527;52.376;8.990;2022-12-29T07:48:05;3.87;;;1.50;;
6973;SDS011;3527;52.376;8.990;2022-12-29T07:50:54;2.47;;;1.50;;
6973;SDS011;3527;52.376;8.990;2022-12-29T07:53:41;1.70;;;1.10;;
6973;SDS011;3527;52.376;8.990;2022-12-29T07:56:28;3.50;;;1.60;;
6973;SDS011;3527;52.376;8.990;2022-12-29T07:59:15;6.47;;;1.80;;
6973;SDS011;3527;52.376;8.990;2022-12-29T08:02:02;3.27;;;1.60;;
6973;SDS011;3527;52.376;8.990;2022-12-29T08:04:49;5.67;;;2.00;;
6973;SDS011;3527;52.376;8.990;2022-12-29T08:07:36;3.77;;;2.50;;
6973;SDS011;3527;52.376;8.990;2022-12-29T08:10:23;4.77;;;2.27;;
6973;SDS011;3527;52.376;8.990;2022-12-29T08:13:11;4.43;;;2.03;;
6973;SDS011;3527;52.376;8.990;2022-12-29T08:15:58;4.10;;;1.87;;
6973;SDS011;3527;52.376;8.990;2022-12-29T08:18:46;3.13;;;1.63;;
6973;SDS011;3527;52.376;8.990;2022-12-29T08:21:32;5.47;;;1.80;;
6973;SDS011;3527;52.376;8.990;2022-12-29T08:24:20;2.80;;;1.40;;
6973;SDS011;3527;52.376;8.990;2022-12-29T08:27:07;3.00;;;1.50;;
6973;SDS011;3527;52.376;8.990;2022-12-29T08:30:05;4.27;;;1.57;;
6973;SDS011;3527;52.376;8.990;2022-12-29T08:32:53;4.57;;;1.57;;
6973;SDS011;3527;52.376;8.990;2022-12-29T08:35:40;4.27;;;1.60;;
6973;SDS011;3527;52.376;8.990;2022-12-29T08:38:27;4.57;;;1.50;;
6973;SDS011;3527;52.376;8.990;2022-12-29T08:41:15;4.77;;;1.50;;
6973;SDS011;3527;52.376;8.990;2022-12-29T08:44:02;4.53;;;1.33;;
6973;SDS011;3527;52.376;8.990;2022-12-29T08:46:49;5.30;;;1.50;;
6973;SDS011;3527;52.376;8.990;2022-12-29T08:49:36;6.57;;;1.40;;
6973;SDS011;3527;52.376;8.990;2022-12-29T08:52:23;2.63;;;1.20;;
6973;SDS011;3527;52.376;8.990;2022-12-29T08:55:10;2.93;;;1.37;;
6973;SDS011;3527;52.376;8.990;2022-12-29T08:57:57;5.50;;;1.60;;
6973;SDS011;3527;52.376;8.990;2022-12-29T09:00:44;2.73;;;1.40;;
6973;SDS011;3527;52.376;8.990;2022-12-29T09:03:31;6.93;;;1.40;;
6973;SDS011;3527;52.376;8.990;2022-12-29T09:06:38;4.23;;;1.30;;
6973;SDS011;3527;52.376;8.990;2022-12-29T09:09:26;4.50;;;1.53;;
6973;SDS011;3527;52.376;8.990;2022-12-29T09:12:13;5.87;;;1.20;;
6973;SDS011;3527;52.376;8.990;2022-12-29T09:15:00;4.27;;;1.30;;
6973;SDS011;3527;52.376;8.990;2022-12-29T09:17:47;5.47;;;1.40;;
6973;SDS011;3527;52.376;8.990;2022-12-29T09:20:35;3.80;;;1.20;;
6973;SDS011;3527;52.376;8.990;2022-12-29T09:23:22;4.67;;;1.23;;
6973;SDS011;3527;52.376;8.990;2022-12-29T09:26:09;3.33;;;1.13;;
6973;SDS011;3527;52.376;8.990;2022-12-29T09:28:56;5.00;;;1.40;;
6973;SDS011;3527;52.376;8.990;2022-12-29T09:31:44;2.80;;;1.20;;
6973;SDS011;3527;52.376;8.990;2022-12-29T09:34:31;2.67;;;1.10;;
6973;SDS011;3527;52.376;8.990;2022-12-29T09:37:18;6.57;;;1.50;;
6973;SDS011;3527;52.376;8.990;2022-12-29T09:40:05;4.40;;;1.20;;
6973;SDS011;3527;52.376;8.990;2022-12-29T09:43:01;2.87;;;1.13;;
6973;SDS011;3527;52.376;8.990;2022-12-29T09:49:24;3.97;;;1.40;;
6973;SDS011;3527;52.376;8.990;2022-12-29T09:52:49;4.67;;;1.50;;
6973;SDS011;3527;52.376;8.990;2022-12-29T09:55:45;3.83;;;1.20;;
6973;SDS011;3527;52.376;8.990;2022-12-29T09:58:42;4.87;;;1.37;;
6973;SDS011;3527;52.376;8.990;2022-12-29T10:01:46;11.23;;;1.73;;
6973;SDS011;3527;52.376;8.990;2022-12-29T10:04:58;6.03;;;1.50;;
6973;SDS011;3527;52.376;8.990;2022-12-29T10:08:00;3.03;;;1.07;;
6973;SDS011;3527;52.376;8.990;2022-12-29T10:11:07;4.93;;;1.70;;
6973;SDS011;3527;52.376;8.990;2022-12-29T10:14:42;6.30;;;1.53;;
6973;SDS011;3527;52.376;8.990;2022-12-29T10:20:41;8.23;;;1.40;;
6973;SDS011;3527;52.376;8.990;2022-12-29T10:23:51;4.67;;;1.40;;
6973;SDS011;3527;52.376;8.990;2022-12-29T10:26:40;3.00;;;1.53;;
6973;SDS011;3527;52.376;8.990;2022-12-29T10:29:32;5.93;;;1.50;;
6973;SDS011;3527;52.376;8.990;2022-12-29T10:35:36;5.60;;;1.50;;
6973;SDS011;3527;52.376;8.990;2022-12-29T10:38:45;4.23;;;1.30;;
6973;SDS011;3527;52.376;8.990;2022-12-29T10:41:39;4.40;;;1.37;;
6973;SDS011;3527;52.376;8.990;2022-12-29T10:44:31;4.70;;;1.60;;
6973;SDS011;3527;52.376;8.990;2022-12-29T10:47:23;4.00;;;1.83;;
6973;SDS011;3527;52.376;8.990;2022-12-29T10:50:14;5.33;;;1.30;;
6973;SDS011;3527;52.376;8.990;2022-12-29T10:53:02;5.53;;;1.23;;
6973;SDS011;3527;52.376;8.990;2022-12-29T10:55:52;5.60;;;1.50;;
6973;SDS011;3527;52.376;8.990;2022-12-29T10:58:40;6.50;;;1.50;;
6973;SDS011;3527;52.376;8.990;2022-12-29T11:01:37;3.60;;;1.10;;
6973;SDS011;3527;52.376;8.990;2022-12-29T11:04:52;4.17;;;1.77;;
6973;SDS011;3527;52.376;8.990;2022-12-29T11:07:41;5.43;;;1.43;;
6973;SDS011;3527;52.376;8.990;2022-12-29T11:10:30;4.03;;;1.30;;
6973;SDS011;3527;52.376;8.990;2022-12-29T11:13:30;4.10;;;1.30;;
6973;SDS011;3527;52.376;8.990;2022-12-29T11:16:31;5.93;;;1.80;;
6973;SDS011;3527;52.376;8.990;2022-12-29T11:19:22;6.73;;;1.87;;
6973;SDS011;3527;52.376;8.990;2022-12-29T11:25:12;5.13;;;1.93;;
6973;SDS011;3527;52.376;8.990;2022-12-29T11:31:02;5.63;;;2.13;;
6973;SDS011;3527;52.376;8.990;2022-12-29T11:33:53;4.63;;;1.70;;
6973;SDS011;3527;52.376;8.990;2022-12-29T11:36:40;4.60;;;1.70;;
6973;SDS011;3527;52.376;8.990;2022-12-29T11:39:34;3.13;;;1.60;;
6973;SDS011;3527;52.376;8.990;2022-12-29T11:45:37;7.57;;;2.00;;
6973;SDS011;3527;52.376;8.990;2022-12-29T11:48:42;5.47;;;1.63;;
6973;SDS011;3527;52.376;8.990;2022-12-29T11:51:37;3.93;;;1.50;;
6973;SDS011;3527;52.376;8.990;2022-12-29T11:54:36;3.47;;;2.00;;
6973;SDS011;3527;52.376;8.990;2022-12-29T11:57:26;4.43;;;1.67;;
6973;SDS011;3527;52.376;8.990;2022-12-29T12:00:16;6.10;;;1.87;;
6973;SDS011;3527;52.376;8.990;2022-12-29T12:03:19;5.57;;;1.80;;
6973;SDS011;3527;52.376;8.990;2022-12-29T12:06:12;4.43;;;1.83;;
6973;SDS011;3527;52.376;8.990;2022-12-29T12:09:16;5.70;;;2.10;;
6973;SDS011;3527;52.376;8.990;2022-12-29T12:12:15;6.63;;;1.83;;
6973;SDS011;3527;52.376;8.990;2022-12-29T12:15:34;8.13;;;2.20;;
6973;SDS011;3527;52.376;8.990;2022-12-29T12:22:19;7.10;;;1.80;;
6973;SDS011;3527;52.376;8.990;2022-12-29T12:28:13;5.63;;;1.83;;
6973;SDS011;3527;52.376;8.990;2022-12-29T12:31:35;5.87;;;1.80;;
6973;SDS011;3527;52.376;8.990;2022-12-29T12:34:43;7.17;;;1.47;;
6973;SDS011;3527;52.376;8.990;2022-12-29T12:37:48;6.43;;;2.00;;
6973;SDS011;3527;52.376;8.990;2022-12-29T12:40:55;6.00;;;1.50;;
6973;SDS011;3527;52.376;8.990;2022-12-29T12:44:03;5.33;;;1.87;;
6973;SDS011;3527;52.376;8.990;2022-12-29T13:00:03;6.03;;;2.23;;
6973;SDS011;3527;52.376;8.990;2022-12-29T13:06:14;3.50;;;1.70;;
6973;SDS011;3527;52.376;8.990;2022-12-29T13:15:45;4.03;;;1.83;;
6973;SDS011;3527;52.376;8.990;2022-12-29T13:25:18;6.17;;;2.30;;
6973;SDS011;3527;52.376;8.990;2022-12-29T13:28:28;3.63;;;1.40;;
6973;SDS011;3527;52.376;8.990;2022-12-29T13:34:53;4.17;;;1.60;;
6973;SDS011;3527;52.376;8.990;2022-12-29T13:37:51;7.43;;;1.60;;
6973;SDS011;3527;52.376;8.990;2022-12-29T13:40:43;5.23;;;1.40;;
6973;SDS011;3527;52.376;8.990;2022-12-29T13:43:34;9.10;;;2.40;;
6973;SDS011;3527;52.376;8.990;2022-12-29T13:46:37;5.03;;;1.30;;
6973;SDS011;3527;52.376;8.990;2022-12-29T13:49:27;7.43;;;1.60;;
6973;SDS011;3527;52.376;8.990;2022-12-29T13:52:21;3.77;;;1.90;;
6973;SDS011;3527;52.376;8.990;2022-12-29T13:58:28;3.87;;;1.67;;
6973;SDS011;3527;52.376;8.990;2022-12-29T14:04:27;7.43;;;2.07;;
6973;SDS011;3527;52.376;8.990;2022-12-29T14:07:16;5.00;;;1.40;;
6973;SDS011;3527;52.376;8.990;2022-12-29T14:10:04;4.20;;;1.47;;
6973;SDS011;3527;52.376;8.990;2022-12-29T14:12:53;4.07;;;1.40;;
6973;SDS011;3527;52.376;8.990;2022-12-29T14:15:53;5.47;;;1.83;;
6973;SDS011;3527;52.376;8.990;2022-12-29T14:18:45;6.13;;;1.60;;
6973;SDS011;3527;52.376;8.990;2022-12-29T14:21:33;7.07;;;1.80;;
6973;SDS011;3527;52.376;8.990;2022-12-29T14:33:36;6.13;;;1.70;;
6973;SDS011;3527;52.376;8.990;2022-12-29T14:36:27;6.57;;;1.70;;
6973;SDS011;3527;52.376;8.990;2022-12-29T14:39:31;5.33;;;1.70;;
6973;SDS011;3527;52.376;8.990;2022-12-29T14:42:29;4.60;;;1.60;;
6973;SDS011;3527;52.376;8.990;2022-12-29T14:48:29;4.47;;;2.07;;
6973;SDS011;3527;52.376;8.990;2022-12-29T14:51:31;5.07;;;1.63;;
6973;SDS011;3527;52.376;8.990;2022-12-29T14:57:24;6.27;;;1.93;;
6973;SDS011;3527;52.376;8.990;2022-12-29T15:00:22;4.97;;;1.80;;
6973;SDS011;3527;52.376;8.990;2022-12-29T15:06:08;5.73;;;1.77;;
6973;SDS011;3527;52.376;8.990;2022-12-29T15:09:08;5.60;;;1.90;;
6973;SDS011;3527;52.376;8.990;2022-12-29T15:12:41;6.80;;;1.97;;
6973;SDS011;3527;52.376;8.990;2022-12-29T15:18:23;6.13;;;1.47;;
6973;SDS011;3527;52.376;8.990;2022-12-29T15:21:21;6.43;;;1.60;;
6973;SDS011;3527;52.376;8.990;2022-12-29T15:24:16;5.10;;;1.47;;
6973;SDS011;3527;52.376;8.990;2022-12-29T15:27:06;4.73;;;1.50;;
6973;SDS011;3527;52.376;8.990;2022-12-29T15:30:03;6.27;;;1.43;;
6973;SDS011;3527;52.376;8.990;2022-12-29T15:33:08;4.67;;;1.60;;
6973;SDS011;3527;52.376;8.990;2022-12-29T15:36:10;3.47;;;1.40;;
6973;SDS011;3527;52.376;8.990;2022-12-29T15:39:00;4.37;;;1.37;;
6973;SDS011;3527;52.376;8.990;2022-12-29T15:41:56;6.33;;;1.80;;
6973;SDS011;3527;52.376;8.990;2022-12-29T15:44:52;7.50;;;1.63;;
6973;SDS011;3527;52.376;8.990;2022-12-29T15:47:56;6.23;;;1.80;;
6973;SDS011;3527;52.376;8.990;2022-12-29T15:50:45;5.77;;;1.80;;
6973;SDS011;3527;52.376;8.990;2022-12-29T15:53:33;7.13;;;2.20;;
6973;SDS011;3527;52.376;8.990;2022-12-29T15:56:20;7.73;;;2.00;;
6973;SDS011;3527;52.376;8.990;2022-12-29T15:59:24;8.23;;;2.13;;
6973;SDS011;3527;52.376;8.990;2022-12-29T16:02:12;6.13;;;2.40;;
6973;SDS011;3527;52.376;8.990;2022-12-29T16:04:59;9.50;;;2.20;;
6973;SDS011;3527;52.376;8.990;2022-12-29T16:08:15;5.03;;;1.80;;
6973;SDS011;3527;52.376;8.990;2022-12-29T16:11:26;11.57;;;2.37;;
6973;SDS011;3527;52.376;8.990;2022-12-29T16:14:33;6.90;;;2.00;;
6973;SDS011;3527;52.376;8.990;2022-12-29T16:17:34;9.30;;;2.50;;
6973;SDS011;3527;52.376;8.990;2022-12-29T16:20:34;8.10;;;2.80;;
6973;SDS011;3527;52.376;8.990;2022-12-29T16:23:28;6.53;;;2.37;;
6973;SDS011;3527;52.376;8.990;2022-12-29T16:26:18;6.27;;;2.20;;
6973;SDS011;3527;52.376;8.990;2022-12-29T16:29:11;13.77;;;2.27;;
6973;SDS011;3527;52.376;8.990;2022-12-29T16:32:01;5.33;;;2.17;;
6973;SDS011;3527;52.376;8.990;2022-12-29T16:38:13;6.80;;;2.47;;
6973;SDS011;3527;52.376;8.990;2022-12-29T16:41:08;10.33;;;2.30;;
6973;SDS011;3527;52.376;8.990;2022-12-29T16:44:22;6.43;;;2.10;;
6973;SDS011;3527;52.376;8.990;2022-12-29T16:50:10;4.20;;;1.97;;
6973;SDS011;3527;52.376;8.990;2022-12-29T16:53:01;8.07;;;2.23;;
6973;SDS011;3527;52.376;8.990;2022-12-29T16:55:52;5.87;;;2.13;;
6973;SDS011;3527;52.376;8.990;2022-12-29T16:58:41;7.10;;;2.40;;
6973;SDS011;3527;52.376;8.990;2022-12-29T17:01:35;8.03;;;2.70;;
6973;SDS011;3527;52.376;8.990;2022-12-29T17:04:24;5.27;;;2.30;;
6973;SDS011;3527;52.376;8.990;2022-12-29T17:07:15;5.30;;;2.50;;
6973;SDS011;3527;52.376;8.990;2022-12-29T17:10:05;4.57;;;2.47;;
6973;SDS011;3527;52.376;8.990;2022-12-29T17:12:52;8.17;;;2.40;;
6973;SDS011;3527;52.376;8.990;2022-12-29T17:15:39;9.57;;;2.70;;
6973;SDS011;3527;52.376;8.990;2022-12-29T17:18:26;9.37;;;3.00;;
6973;SDS011;3527;52.376;8.990;2022-12-29T17:21:13;6.67;;;2.60;;
6973;SDS011;3527;52.376;8.990;2022-12-29T17:24:00;10.33;;;3.20;;
6973;SDS011;3527;52.376;8.990;2022-12-29T17:26:49;6.93;;;2.10;;
6973;SDS011;3527;52.376;8.990;2022-12-29T17:29:39;5.27;;;2.93;;
6973;SDS011;3527;52.376;8.990;2022-12-29T17:32:28;9.83;;;2.90;;
6973;SDS011;3527;52.376;8.990;2022-12-29T17:35:16;6.90;;;2.47;;
6973;SDS011;3527;52.376;8.990;2022-12-29T17:38:48;4.73;;;2.43;;
6973;SDS011;3527;52.376;8.990;2022-12-29T17:41:16;10.50;;;3.60;;
6973;SDS011;3527;52.376;8.990;2022-12-29T17:44:04;9.40;;;4.00;;
6973;SDS011;3527;52.376;8.990;2022-12-29T17:46:52;12.30;;;4.23;;
6973;SDS011;3527;52.376;8.990;2022-12-29T17:49:39;9.77;;;4.00;;
6973;SDS011;3527;52.376;8.990;2022-12-29T17:52:26;8.83;;;3.50;;
6973;SDS011;3527;52.376;8.990;2022-12-29T17:55:17;8.40;;;2.90;;
6973;SDS011;3527;52.376;8.990;2022-12-29T17:58:25;7.57;;;3.43;;
6973;SDS011;3527;52.376;8.990;2022-12-29T18:01:14;4.80;;;2.43;;
6973;SDS011;3527;52.376;8.990;2022-12-29T18:04:02;8.83;;;3.03;;
6973;SDS011;3527;52.376;8.990;2022-12-29T18:06:49;9.60;;;3.00;;
6973;SDS011;3527;52.376;8.990;2022-12-29T18:09:36;6.07;;;2.90;;
6973;SDS011;3527;52.376;8.990;2022-12-29T18:12:28;5.40;;;2.83;;
6973;SDS011;3527;52.376;8.990;2022-12-29T18:15:19;6.20;;;3.23;;
6973;SDS011;3527;52.376;8.990;2022-12-29T18:18:11;5.43;;;3.10;;
6973;SDS011;3527;52.376;8.990;2022-12-29T18:21:00;4.77;;;3.17;;
6973;SDS011;3527;52.376;8.990;2022-12-29T18:23:48;6.37;;;3.10;;
6973;SDS011;3527;52.376;8.990;2022-12-29T18:26:36;6.80;;;4.13;;
6973;SDS011;3527;52.376;8.990;2022-12-29T18:29:23;7.40;;;3.80;;
6973;SDS011;3527;52.376;8.990;2022-12-29T18:32:13;10.60;;;4.57;;
6973;SDS011;3527;52.376;8.990;2022-12-29T18:35:01;6.03;;;4.50;;
6973;SDS011;3527;52.376;8.990;2022-12-29T18:37:48;7.80;;;4.70;;
6973;SDS011;3527;52.376;8.990;2022-12-29T18:40:35;6.40;;;4.40;;
6973;SDS011;3527;52.376;8.990;2022-12-29T18:43:23;6.87;;;4.80;;
6973;SDS011;3527;52.376;8.990;2022-12-29T18:46:10;12.00;;;4.57;;
6973;SDS011;3527;52.376;8.990;2022-12-29T18:49:06;11.87;;;4.80;;
6973;SDS011;3527;52.376;8.990;2022-12-29T18:51:53;8.77;;;4.87;;
6973;SDS011;3527;52.376;8.990;2022-12-29T18:54:40;10.97;;;4.40;;
6973;SDS011;3527;52.376;8.990;2022-12-29T18:57:27;11.77;;;4.90;;
6973;SDS011;3527;52.376;8.990;2022-12-29T19:00:17;8.43;;;4.10;;
6973;SDS011;3527;52.376;8.990;2022-12-29T19:03:08;7.63;;;4.40;;
6973;SDS011;3527;52.376;8.990;2022-12-29T19:06:00;8.40;;;3.30;;
6973;SDS011;3527;52.376;8.990;2022-12-29T19:08:47;5.77;;;3.03;;
6973;SDS011;3527;52.376;8.990;2022-12-29T19:11:34;8.67;;;2.93;;
6973;SDS011;3527;52.376;8.990;2022-12-29T19:14:22;7.73;;;2.70;;
6973;SDS011;3527;52.376;8.990;2022-12-29T19:17:10;4.40;;;2.00;;
6973;SDS011;3527;52.376;8.990;2022-12-29T19:19:58;4.57;;;2.63;;
6973;SDS011;3527;52.376;8.990;2022-12-29T19:22:47;6.50;;;2.37;;
6973;SDS011;3527;52.376;8.990;2022-12-29T19:25:35;7.13;;;2.20;;
6973;SDS011;3527;52.376;8.990;2022-12-29T19:28:23;5.33;;;2.30;;
6973;SDS011;3527;52.376;8.990;2022-12-29T19:31:12;4.70;;;2.00;;
6973;SDS011;3527;52.376;8.990;2022-12-29T19:33:59;3.90;;;2.27;;
6973;SDS011;3527;52.376;8.990;2022-12-29T19:36:48;3.80;;;2.07;;
6973;SDS011;3527;52.376;8.990;2022-12-29T19:39:35;6.27;;;2.00;;
6973;SDS011;3527;52.376;8.990;2022-12-29T19:42:22;5.97;;;2.20;;
6973;SDS011;3527;52.376;8.990;2022-12-29T19:45:09;3.90;;;2.17;;
6973;SDS011;3527;52.376;8.990;2022-12-29T19:47:56;4.10;;;1.60;;
6973;SDS011;3527;52.376;8.990;2022-12-29T19:50:44;3.57;;;1.50;;
6973;SDS011;3527;52.376;8.990;2022-12-29T19:53:31;9.13;;;2.07;;
6973;SDS011;3527;52.376;8.990;2022-12-29T19:56:18;7.40;;;2.00;;
6973;SDS011;3527;52.376;8.990;2022-12-29T19:59:05;6.93;;;1.60;;